sensor_id;sensor_type;location;lat;lon;timestamp;P1;durP1;ratioP1;P2;durP2;ratioP2
28772;SDS011;15925;51.222;5.678;2022-10-01T00:00:58;3.55;;;2.05;;
28772;SDS011;15925;51.222;5.678;2022-10-01T00:03:25;4.28;;;1.85;;
28772;SDS011;15925;51.222;5.678;2022-10-01T00:05:58;2.55;;;1.67;;
28772;SDS011;15925;51.222;5.678;2022-10-01T00:08:27;4.00;;;2.20;;
28772;SDS011;15925;51.222;5.678;2022-10-01T00:10:54;2.65;;;1.48;;
28772;SDS011;15925;51.222;5.678;2022-10-01T00:13:20;2.83;;;1.77;;
28772;SDS011;15925;51.222;5.678;2022-10-01T00:15:46;5.72;;;2.45;;
28772;SDS011;15925;51.222;5.678;2022-10-01T00:18:12;1.80;;;1.38;;
28772;SDS011;15925;51.222;5.678;2022-10-01T00:20:39;3.70;;;2.63;;
28772;SDS011;15925;51.222;5.678;2022-10-01T00:23:09;1.58;;;1.42;;
28772;SDS011;15925;51.222;5.678;2022-10-01T00:25:36;3.50;;;1.65;;
28772;SDS011;15925;51.222;5.678;2022-10-01T00:28:02;2.95;;;1.83;;
28772;SDS011;15925;51.222;5.678;2022-10-01T00:30:28;3.23;;;1.57;;
28772;SDS011;15925;51.222;5.678;2022-10-01T00:32:54;2.63;;;1.77;;
28772;SDS011;15925;51.222;5.678;2022-10-01T00:35:20;3.35;;;1.63;;
28772;SDS011;15925;51.222;5.678;2022-10-01T00:37:47;4.07;;;2.13;;
28772;SDS011;15925;51.222;5.678;2022-10-01T00:40:15;9.48;;;2.08;;
28772;SDS011;15925;51.222;5.678;2022-10-01T00:42:42;6.47;;;1.92;;
28772;SDS011;15925;51.222;5.678;2022-10-01T00:45:09;1.45;;;1.05;;
28772;SDS011;15925;51.222;5.678;2022-10-01T00:47:40;7.22;;;1.80;;
28772;SDS011;15925;51.222;5.678;2022-10-01T00:50:29;2.75;;;1.70;;
28772;SDS011;15925;51.222;5.678;2022-10-01T00:52:58;1.52;;;1.17;;
28772;SDS011;15925;51.222;5.678;2022-10-01T00:57:58;12.48;;;1.83;;
28772;SDS011;15925;51.222;5.678;2022-10-01T01:00:25;1.42;;;1.25;;
28772;SDS011;15925;51.222;5.678;2022-10-01T01:02:50;2.60;;;1.60;;
28772;SDS011;15925;51.222;5.678;2022-10-01T01:05:17;5.07;;;1.42;;
28772;SDS011;15925;51.222;5.678;2022-10-01T01:07:44;1.45;;;1.20;;
28772;SDS011;15925;51.222;5.678;2022-10-01T01:10:13;3.08;;;1.23;;
28772;SDS011;15925;51.222;5.678;2022-10-01T01:18:08;6.05;;;1.63;;
28772;SDS011;15925;51.222;5.678;2022-10-01T01:23:56;1.88;;;1.60;;
28772;SDS011;15925;51.222;5.678;2022-10-01T01:26:43;3.83;;;1.42;;
28772;SDS011;15925;51.222;5.678;2022-10-01T01:29:26;1.42;;;1.05;;
28772;SDS011;15925;51.222;5.678;2022-10-01T01:32:10;7.07;;;1.63;;
28772;SDS011;15925;51.222;5.678;2022-10-01T01:34:42;1.77;;;1.23;;
28772;SDS011;15925;51.222;5.678;2022-10-01T01:37:12;6.38;;;1.75;;
28772;SDS011;15925;51.222;5.678;2022-10-01T01:39:42;2.47;;;1.45;;
28772;SDS011;15925;51.222;5.678;2022-10-01T01:42:30;3.03;;;1.48;;
28772;SDS011;15925;51.222;5.678;2022-10-01T01:45:02;2.70;;;1.13;;
28772;SDS011;15925;51.222;5.678;2022-10-01T01:47:34;11.43;;;1.63;;
28772;SDS011;15925;51.222;5.678;2022-10-01T01:50:02;2.90;;;1.15;;
28772;SDS011;15925;51.222;5.678;2022-10-01T01:52:31;5.15;;;1.63;;
28772;SDS011;15925;51.222;5.678;2022-10-01T01:54:57;2.60;;;1.08;;
28772;SDS011;15925;51.222;5.678;2022-10-01T01:57:23;7.13;;;1.70;;
28772;SDS011;15925;51.222;5.678;2022-10-01T01:59:50;2.33;;;1.15;;
28772;SDS011;15925;51.222;5.678;2022-10-01T02:02:25;3.53;;;1.25;;
28772;SDS011;15925;51.222;5.678;2022-10-01T02:04:56;0.98;;;0.80;;
28772;SDS011;15925;51.222;5.678;2022-10-01T02:07:48;3.67;;;2.00;;
28772;SDS011;15925;51.222;5.678;2022-10-01T02:21:22;3.45;;;1.08;;
28772;SDS011;15925;51.222;5.678;2022-10-01T02:26:38;1.83;;;1.10;;
28772;SDS011;15925;51.222;5.678;2022-10-01T02:29:07;0.80;;;0.70;;
28772;SDS011;15925;51.222;5.678;2022-10-01T02:31:37;1.05;;;0.47;;
28772;SDS011;15925;51.222;5.678;2022-10-01T02:36:31;1.15;;;0.88;;
28772;SDS011;15925;51.222;5.678;2022-10-01T02:38:59;1.17;;;0.65;;
28772;SDS011;15925;51.222;5.678;2022-10-01T02:41:28;1.00;;;0.80;;
28772;SDS011;15925;51.222;5.678;2022-10-01T02:43:59;0.75;;;0.50;;
28772;SDS011;15925;51.222;5.678;2022-10-01T02:49:12;2.90;;;0.60;;
28772;SDS011;15925;51.222;5.678;2022-10-01T02:57:23;0.38;;;0.30;;
28772;SDS011;15925;51.222;5.678;2022-10-01T02:59:58;0.90;;;0.43;;
28772;SDS011;15925;51.222;5.678;2022-10-01T03:02:26;1.42;;;0.77;;
28772;SDS011;15925;51.222;5.678;2022-10-01T03:04:53;0.45;;;0.30;;
28772;SDS011;15925;51.222;5.678;2022-10-01T03:07:21;0.93;;;0.57;;
28772;SDS011;15925;51.222;5.678;2022-10-01T03:09:47;0.68;;;0.50;;
28772;SDS011;15925;51.222;5.678;2022-10-01T03:12:14;0.30;;;0.30;;
28772;SDS011;15925;51.222;5.678;2022-10-01T03:14:41;1.17;;;0.65;;
28772;SDS011;15925;51.222;5.678;2022-10-01T03:17:08;0.52;;;0.40;;
28772;SDS011;15925;51.222;5.678;2022-10-01T03:19:34;5.43;;;0.47;;
28772;SDS011;15925;51.222;5.678;2022-10-01T03:22:00;0.47;;;0.47;;
28772;SDS011;15925;51.222;5.678;2022-10-01T03:24:26;2.55;;;0.52;;
28772;SDS011;15925;51.222;5.678;2022-10-01T03:26:54;0.20;;;0.20;;
28772;SDS011;15925;51.222;5.678;2022-10-01T03:29:21;0.98;;;0.25;;
28772;SDS011;15925;51.222;5.678;2022-10-01T03:31:50;0.15;;;0.15;;
28772;SDS011;15925;51.222;5.678;2022-10-01T03:34:16;0.28;;;0.15;;
28772;SDS011;15925;51.222;5.678;2022-10-01T03:36:42;2.07;;;0.43;;
28772;SDS011;15925;51.222;5.678;2022-10-01T03:39:08;0.17;;;0.15;;
28772;SDS011;15925;51.222;5.678;2022-10-01T03:41:34;0.13;;;0.10;;
28772;SDS011;15925;51.222;5.678;2022-10-01T03:44:01;0.10;;;0.10;;
28772;SDS011;15925;51.222;5.678;2022-10-01T03:46:27;1.05;;;0.47;;
28772;SDS011;15925;51.222;5.678;2022-10-01T03:48:53;0.30;;;0.20;;
28772;SDS011;15925;51.222;5.678;2022-10-01T03:51:21;0.20;;;0.10;;
28772;SDS011;15925;51.222;5.678;2022-10-01T03:53:47;0.10;;;0.10;;
28772;SDS011;15925;51.222;5.678;2022-10-01T03:56:13;0.20;;;0.20;;
28772;SDS011;15925;51.222;5.678;2022-10-01T03:58:40;0.10;;;0.10;;
28772;SDS011;15925;51.222;5.678;2022-10-01T04:01:06;0.63;;;0.17;;
28772;SDS011;15925;51.222;5.678;2022-10-01T04:03:31;0.10;;;0.10;;
28772;SDS011;15925;51.222;5.678;2022-10-01T04:05:57;0.30;;;0.30;;
28772;SDS011;15925;51.222;5.678;2022-10-01T04:08:23;0.43;;;0.20;;
28772;SDS011;15925;51.222;5.678;2022-10-01T04:10:49;14.27;;;0.30;;
28772;SDS011;15925;51.222;5.678;2022-10-01T04:13:15;0.17;;;0.05;;
28772;SDS011;15925;51.222;5.678;2022-10-01T04:15:41;0.20;;;0.20;;
28772;SDS011;15925;51.222;5.678;2022-10-01T04:18:07;0.00;;;0.00;;
28772;SDS011;15925;51.222;5.678;2022-10-01T04:20:34;0.30;;;0.10;;
28772;SDS011;15925;51.222;5.678;2022-10-01T04:23:01;0.00;;;0.00;;
28772;SDS011;15925;51.222;5.678;2022-10-01T04:27:58;0.00;;;0.00;;
28772;SDS011;15925;51.222;5.678;2022-10-01T04:30:32;0.00;;;0.00;;
28772;SDS011;15925;51.222;5.678;2022-10-01T04:32:59;0.00;;;0.00;;
28772;SDS011;15925;51.222;5.678;2022-10-01T04:35:25;0.25;;;0.10;;
28772;SDS011;15925;51.222;5.678;2022-10-01T04:37:56;0.05;;;0.03;;
28772;SDS011;15925;51.222;5.678;2022-10-01T04:40:23;0.00;;;0.00;;
28772;SDS011;15925;51.222;5.678;2022-10-01T04:42:49;0.10;;;0.10;;
28772;SDS011;15925;51.222;5.678;2022-10-01T04:45:16;0.10;;;0.10;;
28772;SDS011;15925;51.222;5.678;2022-10-01T04:47:49;0.10;;;0.10;;
28772;SDS011;15925;51.222;5.678;2022-10-01T04:50:17;1.65;;;0.25;;
28772;SDS011;15925;51.222;5.678;2022-10-01T04:52:48;0.08;;;0.08;;
28772;SDS011;15925;51.222;5.678;2022-10-01T04:55:14;0.05;;;0.00;;
28772;SDS011;15925;51.222;5.678;2022-10-01T04:57:41;0.20;;;0.10;;
28772;SDS011;15925;51.222;5.678;2022-10-01T05:00:09;0.10;;;0.10;;
28772;SDS011;15925;51.222;5.678;2022-10-01T05:02:37;0.00;;;0.00;;
28772;SDS011;15925;51.222;5.678;2022-10-01T05:05:03;0.10;;;0.10;;
28772;SDS011;15925;51.222;5.678;2022-10-01T05:07:31;0.22;;;0.20;;
28772;SDS011;15925;51.222;5.678;2022-10-01T05:09:58;0.00;;;0.00;;
28772;SDS011;15925;51.222;5.678;2022-10-01T05:12:25;0.00;;;0.00;;
28772;SDS011;15925;51.222;5.678;2022-10-01T05:14:54;0.03;;;0.03;;
28772;SDS011;15925;51.222;5.678;2022-10-01T05:17:21;0.32;;;0.20;;
28772;SDS011;15925;51.222;5.678;2022-10-01T05:19:47;0.93;;;0.05;;
28772;SDS011;15925;51.222;5.678;2022-10-01T05:22:14;0.10;;;0.00;;
28772;SDS011;15925;51.222;5.678;2022-10-01T05:24:40;0.10;;;0.00;;
28772;SDS011;15925;51.222;5.678;2022-10-01T05:27:10;0.17;;;0.10;;
28772;SDS011;15925;51.222;5.678;2022-10-01T05:29:41;0.10;;;0.10;;
28772;SDS011;15925;51.222;5.678;2022-10-01T05:32:08;0.20;;;0.20;;
28772;SDS011;15925;51.222;5.678;2022-10-01T05:34:34;0.03;;;0.03;;
28772;SDS011;15925;51.222;5.678;2022-10-01T05:37:00;1.40;;;0.25;;
28772;SDS011;15925;51.222;5.678;2022-10-01T05:39:27;0.00;;;0.00;;
28772;SDS011;15925;51.222;5.678;2022-10-01T05:41:53;6.78;;;0.22;;
28772;SDS011;15925;51.222;5.678;2022-10-01T05:46:46;0.30;;;0.10;;
28772;SDS011;15925;51.222;5.678;2022-10-01T05:49:12;0.17;;;0.17;;
28772;SDS011;15925;51.222;5.678;2022-10-01T05:51:38;0.45;;;0.20;;
28772;SDS011;15925;51.222;5.678;2022-10-01T05:54:04;5.70;;;0.20;;
28772;SDS011;15925;51.222;5.678;2022-10-01T05:56:30;0.30;;;0.20;;
28772;SDS011;15925;51.222;5.678;2022-10-01T05:58:56;0.00;;;0.00;;
28772;SDS011;15925;51.222;5.678;2022-10-01T06:01:22;2.33;;;0.40;;
28772;SDS011;15925;51.222;5.678;2022-10-01T06:03:51;0.40;;;0.40;;
28772;SDS011;15925;51.222;5.678;2022-10-01T06:06:21;0.20;;;0.20;;
28772;SDS011;15925;51.222;5.678;2022-10-01T06:08:47;0.20;;;0.15;;
28772;SDS011;15925;51.222;5.678;2022-10-01T06:11:13;0.10;;;0.10;;
28772;SDS011;15925;51.222;5.678;2022-10-01T06:13:41;3.63;;;0.40;;
28772;SDS011;15925;51.222;5.678;2022-10-01T06:16:12;5.65;;;0.30;;
28772;SDS011;15925;51.222;5.678;2022-10-01T06:18:39;0.20;;;0.20;;
28772;SDS011;15925;51.222;5.678;2022-10-01T06:23:31;0.32;;;0.30;;
28772;SDS011;15925;51.222;5.678;2022-10-01T06:25:59;0.20;;;0.20;;
28772;SDS011;15925;51.222;5.678;2022-10-01T06:28:26;0.52;;;0.43;;
28772;SDS011;15925;51.222;5.678;2022-10-01T06:30:52;0.30;;;0.30;;
28772;SDS011;15925;51.222;5.678;2022-10-01T06:33:18;0.13;;;0.13;;
28772;SDS011;15925;51.222;5.678;2022-10-01T06:38:11;0.73;;;0.30;;
28772;SDS011;15925;51.222;5.678;2022-10-01T06:43:04;0.95;;;0.57;;
28772;SDS011;15925;51.222;5.678;2022-10-01T06:45:34;0.30;;;0.30;;
28772;SDS011;15925;51.222;5.678;2022-10-01T06:48:02;0.45;;;0.30;;
28772;SDS011;15925;51.222;5.678;2022-10-01T06:50:31;0.10;;;0.10;;
28772;SDS011;15925;51.222;5.678;2022-10-01T06:52:58;0.35;;;0.30;;
28772;SDS011;15925;51.222;5.678;2022-10-01T06:55:29;5.88;;;0.60;;
28772;SDS011;15925;51.222;5.678;2022-10-01T06:58:00;0.60;;;0.40;;
28772;SDS011;15925;51.222;5.678;2022-10-01T07:00:31;0.40;;;0.25;;
28772;SDS011;15925;51.222;5.678;2022-10-01T07:02:58;0.22;;;0.22;;
28772;SDS011;15925;51.222;5.678;2022-10-01T07:07:51;2.53;;;0.45;;
28772;SDS011;15925;51.222;5.678;2022-10-01T07:10:18;0.20;;;0.20;;
28772;SDS011;15925;51.222;5.678;2022-10-01T07:12:45;2.80;;;0.90;;
28772;SDS011;15925;51.222;5.678;2022-10-01T07:15:15;0.43;;;0.30;;
28772;SDS011;15925;51.222;5.678;2022-10-01T07:17:46;0.10;;;0.10;;
28772;SDS011;15925;51.222;5.678;2022-10-01T07:20:13;1.42;;;0.68;;
28772;SDS011;15925;51.222;5.678;2022-10-01T07:22:42;0.35;;;0.22;;
28772;SDS011;15925;51.222;5.678;2022-10-01T07:25:08;1.10;;;0.17;;
28772;SDS011;15925;51.222;5.678;2022-10-01T07:27:34;0.60;;;0.35;;
28772;SDS011;15925;51.222;5.678;2022-10-01T07:30:01;0.65;;;0.50;;
28772;SDS011;15925;51.222;5.678;2022-10-01T07:32:27;0.98;;;0.30;;
28772;SDS011;15925;51.222;5.678;2022-10-01T07:34:55;0.82;;;0.50;;
28772;SDS011;15925;51.222;5.678;2022-10-01T07:37:21;0.95;;;0.60;;
28772;SDS011;15925;51.222;5.678;2022-10-01T07:39:47;1.13;;;0.40;;
28772;SDS011;15925;51.222;5.678;2022-10-01T07:42:13;0.50;;;0.50;;
28772;SDS011;15925;51.222;5.678;2022-10-01T07:44:39;0.40;;;0.40;;
28772;SDS011;15925;51.222;5.678;2022-10-01T07:47:05;2.00;;;0.50;;
28772;SDS011;15925;51.222;5.678;2022-10-01T07:49:31;1.40;;;0.47;;
28772;SDS011;15925;51.222;5.678;2022-10-01T07:51:56;0.77;;;0.57;;
28772;SDS011;15925;51.222;5.678;2022-10-01T07:54:23;3.50;;;0.47;;
28772;SDS011;15925;51.222;5.678;2022-10-01T07:56:50;11.13;;;1.00;;
28772;SDS011;15925;51.222;5.678;2022-10-01T07:59:22;4.68;;;0.40;;
28772;SDS011;15925;51.222;5.678;2022-10-01T08:01:51;0.57;;;0.40;;
28772;SDS011;15925;51.222;5.678;2022-10-01T08:04:20;0.85;;;0.45;;
28772;SDS011;15925;51.222;5.678;2022-10-01T08:07:06;0.98;;;0.50;;
28772;SDS011;15925;51.222;5.678;2022-10-01T08:09:33;0.80;;;0.50;;
28772;SDS011;15925;51.222;5.678;2022-10-01T08:11:59;0.63;;;0.63;;
28772;SDS011;15925;51.222;5.678;2022-10-01T08:14:26;1.27;;;0.90;;
28772;SDS011;15925;51.222;5.678;2022-10-01T08:16:55;7.82;;;0.50;;
28772;SDS011;15925;51.222;5.678;2022-10-01T08:19:22;0.50;;;0.38;;
28772;SDS011;15925;51.222;5.678;2022-10-01T08:21:48;1.60;;;1.02;;
28772;SDS011;15925;51.222;5.678;2022-10-01T08:24:14;1.80;;;0.77;;
28772;SDS011;15925;51.222;5.678;2022-10-01T08:26:40;0.73;;;0.43;;
28772;SDS011;15925;51.222;5.678;2022-10-01T08:29:05;2.53;;;0.60;;
28772;SDS011;15925;51.222;5.678;2022-10-01T08:31:31;1.30;;;0.70;;
28772;SDS011;15925;51.222;5.678;2022-10-01T08:33:57;3.97;;;0.80;;
28772;SDS011;15925;51.222;5.678;2022-10-01T08:36:23;0.40;;;0.40;;
28772;SDS011;15925;51.222;5.678;2022-10-01T08:38:48;0.20;;;0.20;;
28772;SDS011;15925;51.222;5.678;2022-10-01T08:43:43;3.40;;;0.55;;
28772;SDS011;15925;51.222;5.678;2022-10-01T08:46:10;0.73;;;0.30;;
28772;SDS011;15925;51.222;5.678;2022-10-01T08:57:00;2.83;;;0.40;;
28772;SDS011;15925;51.222;5.678;2022-10-01T08:59:41;0.28;;;0.22;;
28772;SDS011;15925;51.222;5.678;2022-10-01T09:02:14;0.93;;;0.22;;
28772;SDS011;15925;51.222;5.678;2022-10-01T09:07:48;0.63;;;0.40;;
28772;SDS011;15925;51.222;5.678;2022-10-01T09:21:54;5.28;;;1.05;;
28772;SDS011;15925;51.222;5.678;2022-10-01T09:27:15;5.20;;;1.45;;
28772;SDS011;15925;51.222;5.678;2022-10-01T09:29:43;1.45;;;0.85;;
28772;SDS011;15925;51.222;5.678;2022-10-01T09:32:11;1.33;;;0.90;;
28772;SDS011;15925;51.222;5.678;2022-10-01T09:34:41;4.35;;;1.63;;
28772;SDS011;15925;51.222;5.678;2022-10-01T09:40:18;3.20;;;1.45;;
28772;SDS011;15925;51.222;5.678;2022-10-01T09:42:46;3.05;;;1.38;;
28772;SDS011;15925;51.222;5.678;2022-10-01T09:45:12;14.23;;;2.30;;
28772;SDS011;15925;51.222;5.678;2022-10-01T09:47:39;7.47;;;1.92;;
28772;SDS011;15925;51.222;5.678;2022-10-01T09:50:12;6.78;;;1.85;;
28772;SDS011;15925;51.222;5.678;2022-10-01T09:52:42;9.07;;;2.65;;
28772;SDS011;15925;51.222;5.678;2022-10-01T09:58:28;9.10;;;2.25;;
28772;SDS011;15925;51.222;5.678;2022-10-01T10:00:55;12.55;;;1.85;;
28772;SDS011;15925;51.222;5.678;2022-10-01T10:03:25;3.80;;;1.83;;
28772;SDS011;15925;51.222;5.678;2022-10-01T10:05:54;10.18;;;1.40;;
28772;SDS011;15925;51.222;5.678;2022-10-01T10:08:27;6.60;;;1.67;;
28772;SDS011;15925;51.222;5.678;2022-10-01T10:10:58;14.50;;;1.58;;
28772;SDS011;15925;51.222;5.678;2022-10-01T10:16:18;7.65;;;0.95;;
28772;SDS011;15925;51.222;5.678;2022-10-01T10:19:02;6.45;;;1.30;;
28772;SDS011;15925;51.222;5.678;2022-10-01T10:21:34;5.50;;;1.40;;
28772;SDS011;15925;51.222;5.678;2022-10-01T10:24:01;2.60;;;1.15;;
28772;SDS011;15925;51.222;5.678;2022-10-01T10:28:59;11.80;;;1.60;;
28772;SDS011;15925;51.222;5.678;2022-10-01T10:31:45;6.35;;;1.80;;
28772;SDS011;15925;51.222;5.678;2022-10-01T10:34:45;9.63;;;1.60;;
28772;SDS011;15925;51.222;5.678;2022-10-01T10:37:13;4.72;;;1.40;;
28772;SDS011;15925;51.222;5.678;2022-10-01T10:39:48;3.15;;;1.33;;
28772;SDS011;15925;51.222;5.678;2022-10-01T10:42:16;9.07;;;2.03;;
28772;SDS011;15925;51.222;5.678;2022-10-01T10:44:44;6.82;;;1.63;;
28772;SDS011;15925;51.222;5.678;2022-10-01T10:47:14;11.82;;;1.88;;
28772;SDS011;15925;51.222;5.678;2022-10-01T10:49:49;6.40;;;0.95;;
28772;SDS011;15925;51.222;5.678;2022-10-01T10:52:25;1.55;;;0.82;;
28772;SDS011;15925;51.222;5.678;2022-10-01T10:54:54;9.00;;;1.13;;
28772;SDS011;15925;51.222;5.678;2022-10-01T10:57:22;12.57;;;1.67;;
28772;SDS011;15925;51.222;5.678;2022-10-01T11:00:00;8.35;;;1.10;;
28772;SDS011;15925;51.222;5.678;2022-10-01T11:05:20;5.82;;;1.08;;
28772;SDS011;15925;51.222;5.678;2022-10-01T11:07:49;6.38;;;0.77;;
28772;SDS011;15925;51.222;5.678;2022-10-01T11:37:44;10.00;;;1.30;;
28772;SDS011;15925;51.222;5.678;2022-10-01T11:40:27;9.13;;;1.30;;
28772;SDS011;15925;51.222;5.678;2022-10-01T11:42:59;7.28;;;0.50;;
28772;SDS011;15925;51.222;5.678;2022-10-01T11:46:01;7.85;;;1.30;;
28772;SDS011;15925;51.222;5.678;2022-10-01T11:48:33;6.35;;;0.63;;
28772;SDS011;15925;51.222;5.678;2022-10-01T11:51:14;9.77;;;0.70;;
28772;SDS011;15925;51.222;5.678;2022-10-01T11:53:45;3.20;;;0.65;;
28772;SDS011;15925;51.222;5.678;2022-10-01T11:56:26;9.90;;;1.40;;
28772;SDS011;15925;51.222;5.678;2022-10-01T12:02:03;4.45;;;1.23;;
28772;SDS011;15925;51.222;5.678;2022-10-01T12:04:42;13.93;;;0.82;;
28772;SDS011;15925;51.222;5.678;2022-10-01T12:10:08;19.05;;;1.95;;
28772;SDS011;15925;51.222;5.678;2022-10-01T12:13:00;10.20;;;1.80;;
28772;SDS011;15925;51.222;5.678;2022-10-01T12:15:33;5.22;;;0.82;;
28772;SDS011;15925;51.222;5.678;2022-10-01T12:18:30;5.90;;;0.77;;
28772;SDS011;15925;51.222;5.678;2022-10-01T12:21:05;4.13;;;0.57;;
28772;SDS011;15925;51.222;5.678;2022-10-01T12:23:49;9.57;;;0.82;;
28772;SDS011;15925;51.222;5.678;2022-10-01T12:26:44;4.80;;;0.82;;
28772;SDS011;15925;51.222;5.678;2022-10-01T12:32:32;0.45;;;0.45;;
28772;SDS011;15925;51.222;5.678;2022-10-01T12:35:19;9.65;;;1.45;;
28772;SDS011;15925;51.222;5.678;2022-10-01T12:47:05;5.18;;;0.95;;
28772;SDS011;15925;51.222;5.678;2022-10-01T12:58:17;3.42;;;0.55;;
28772;SDS011;15925;51.222;5.678;2022-10-01T13:12:57;9.15;;;0.95;;
28772;SDS011;15925;51.222;5.678;2022-10-01T13:15:35;1.33;;;0.50;;
28772;SDS011;15925;51.222;5.678;2022-10-01T13:23:32;8.52;;;1.17;;
28772;SDS011;15925;51.222;5.678;2022-10-01T13:31:49;2.97;;;0.77;;
28772;SDS011;15925;51.222;5.678;2022-10-01T13:37:16;3.45;;;0.85;;
28772;SDS011;15925;51.222;5.678;2022-10-01T13:39:55;5.85;;;0.85;;
28772;SDS011;15925;51.222;5.678;2022-10-01T13:42:22;6.00;;;0.47;;
28772;SDS011;15925;51.222;5.678;2022-10-01T13:44:55;6.45;;;0.88;;
28772;SDS011;15925;51.222;5.678;2022-10-01T13:47:28;4.15;;;0.55;;
28772;SDS011;15925;51.222;5.678;2022-10-01T13:49:59;9.32;;;0.85;;
28772;SDS011;15925;51.222;5.678;2022-10-01T13:52:30;2.65;;;0.80;;
28772;SDS011;15925;51.222;5.678;2022-10-01T13:54:57;7.82;;;0.43;;
28772;SDS011;15925;51.222;5.678;2022-10-01T13:59:59;4.03;;;0.65;;
28772;SDS011;15925;51.222;5.678;2022-10-01T14:04:53;7.88;;;0.73;;
28772;SDS011;15925;51.222;5.678;2022-10-01T14:07:29;13.27;;;1.05;;
28772;SDS011;15925;51.222;5.678;2022-10-01T14:10:00;11.85;;;0.93;;
28772;SDS011;15925;51.222;5.678;2022-10-01T14:12:32;9.43;;;1.60;;
28772;SDS011;15925;51.222;5.678;2022-10-01T14:15:22;10.15;;;0.88;;
28772;SDS011;15925;51.222;5.678;2022-10-01T14:18:22;12.68;;;0.80;;
28772;SDS011;15925;51.222;5.678;2022-10-01T14:23:32;14.10;;;1.05;;
28772;SDS011;15925;51.222;5.678;2022-10-01T14:26:04;2.58;;;0.85;;
28772;SDS011;15925;51.222;5.678;2022-10-01T14:31:45;5.72;;;1.02;;
28772;SDS011;15925;51.222;5.678;2022-10-01T14:36:59;5.97;;;0.82;;
28772;SDS011;15925;51.222;5.678;2022-10-01T14:39:26;9.03;;;1.17;;
28772;SDS011;15925;51.222;5.678;2022-10-01T14:41:54;16.83;;;0.85;;
28772;SDS011;15925;51.222;5.678;2022-10-01T14:44:25;9.40;;;1.63;;
28772;SDS011;15925;51.222;5.678;2022-10-01T14:46:54;20.38;;;0.85;;
28772;SDS011;15925;51.222;5.678;2022-10-01T14:49:25;9.32;;;1.25;;
28772;SDS011;15925;51.222;5.678;2022-10-01T14:51:57;8.52;;;0.95;;
28772;SDS011;15925;51.222;5.678;2022-10-01T14:54:25;8.23;;;0.75;;
28772;SDS011;15925;51.222;5.678;2022-10-01T14:56:52;7.30;;;1.45;;
28772;SDS011;15925;51.222;5.678;2022-10-01T14:59:35;1.27;;;0.57;;
28772;SDS011;15925;51.222;5.678;2022-10-01T15:02:15;7.32;;;1.20;;
28772;SDS011;15925;51.222;5.678;2022-10-01T15:04:49;8.77;;;0.93;;
28772;SDS011;15925;51.222;5.678;2022-10-01T15:07:17;6.85;;;1.08;;
28772;SDS011;15925;51.222;5.678;2022-10-01T15:09:44;0.82;;;0.28;;
28772;SDS011;15925;51.222;5.678;2022-10-01T15:12:11;9.88;;;0.55;;
28772;SDS011;15925;51.222;5.678;2022-10-01T15:14:39;3.10;;;0.82;;
28772;SDS011;15925;51.222;5.678;2022-10-01T15:17:09;9.00;;;0.60;;
28772;SDS011;15925;51.222;5.678;2022-10-01T15:19:42;2.50;;;0.43;;
28772;SDS011;15925;51.222;5.678;2022-10-01T15:22:11;3.80;;;0.70;;
28772;SDS011;15925;51.222;5.678;2022-10-01T15:24:39;6.03;;;1.00;;
28772;SDS011;15925;51.222;5.678;2022-10-01T15:27:07;6.53;;;0.85;;
28772;SDS011;15925;51.222;5.678;2022-10-01T15:29:35;6.65;;;0.90;;
28772;SDS011;15925;51.222;5.678;2022-10-01T15:32:05;6.53;;;0.30;;
28772;SDS011;15925;51.222;5.678;2022-10-01T15:34:32;5.45;;;0.57;;
28772;SDS011;15925;51.222;5.678;2022-10-01T15:36:59;12.48;;;1.13;;
28772;SDS011;15925;51.222;5.678;2022-10-01T15:41:55;2.15;;;0.73;;
28772;SDS011;15925;51.222;5.678;2022-10-01T15:50:00;5.80;;;0.75;;
28772;SDS011;15925;51.222;5.678;2022-10-01T15:52:54;3.70;;;0.80;;
28772;SDS011;15925;51.222;5.678;2022-10-01T15:55:31;17.75;;;0.68;;
28772;SDS011;15925;51.222;5.678;2022-10-01T16:00:51;3.35;;;0.40;;
28772;SDS011;15925;51.222;5.678;2022-10-01T16:03:19;3.92;;;0.95;;
28772;SDS011;15925;51.222;5.678;2022-10-01T16:05:51;15.60;;;1.20;;
28772;SDS011;15925;51.222;5.678;2022-10-01T16:08:23;11.02;;;1.00;;
28772;SDS011;15925;51.222;5.678;2022-10-01T16:11:14;4.28;;;0.60;;
28772;SDS011;15925;51.222;5.678;2022-10-01T16:13:43;3.30;;;0.32;;
28772;SDS011;15925;51.222;5.678;2022-10-01T16:16:27;9.95;;;1.25;;
28772;SDS011;15925;51.222;5.678;2022-10-01T16:18:57;7.43;;;0.75;;
28772;SDS011;15925;51.222;5.678;2022-10-01T16:21:43;2.03;;;0.40;;
28772;SDS011;15925;51.222;5.678;2022-10-01T16:24:29;7.13;;;0.75;;
28772;SDS011;15925;51.222;5.678;2022-10-01T16:27:11;2.65;;;0.93;;
28772;SDS011;15925;51.222;5.678;2022-10-01T16:29:40;6.18;;;1.23;;
28772;SDS011;15925;51.222;5.678;2022-10-01T16:32:08;7.22;;;0.93;;
28772;SDS011;15925;51.222;5.678;2022-10-01T16:34:38;11.77;;;0.50;;
28772;SDS011;15925;51.222;5.678;2022-10-01T16:37:05;9.20;;;0.90;;
28772;SDS011;15925;51.222;5.678;2022-10-01T16:41:57;4.70;;;0.70;;
28772;SDS011;15925;51.222;5.678;2022-10-01T16:44:25;5.15;;;1.00;;
28772;SDS011;15925;51.222;5.678;2022-10-01T16:46:51;11.15;;;0.82;;
28772;SDS011;15925;51.222;5.678;2022-10-01T16:49:18;8.55;;;0.82;;
28772;SDS011;15925;51.222;5.678;2022-10-01T16:51:44;8.20;;;0.77;;
28772;SDS011;15925;51.222;5.678;2022-10-01T16:54:23;12.65;;;0.80;;
28772;SDS011;15925;51.222;5.678;2022-10-01T16:56:51;6.63;;;1.20;;
28772;SDS011;15925;51.222;5.678;2022-10-01T16:59:19;6.72;;;0.80;;
28772;SDS011;15925;51.222;5.678;2022-10-01T17:01:50;10.45;;;1.00;;
28772;SDS011;15925;51.222;5.678;2022-10-01T17:04:19;6.63;;;1.25;;
28772;SDS011;15925;51.222;5.678;2022-10-01T17:06:46;7.82;;;1.25;;
28772;SDS011;15925;51.222;5.678;2022-10-01T17:09:12;3.03;;;0.68;;
28772;SDS011;15925;51.222;5.678;2022-10-01T17:11:38;13.23;;;1.40;;
28772;SDS011;15925;51.222;5.678;2022-10-01T17:14:05;10.32;;;1.13;;
28772;SDS011;15925;51.222;5.678;2022-10-01T17:16:33;2.30;;;0.38;;
28772;SDS011;15925;51.222;5.678;2022-10-01T17:21:26;13.38;;;1.10;;
28772;SDS011;15925;51.222;5.678;2022-10-01T17:23:53;6.55;;;1.20;;
28772;SDS011;15925;51.222;5.678;2022-10-01T17:26:18;12.23;;;0.50;;
28772;SDS011;15925;51.222;5.678;2022-10-01T17:28:44;1.60;;;0.37;;
28772;SDS011;15925;51.222;5.678;2022-10-01T17:31:10;3.13;;;0.53;;
28772;SDS011;15925;51.222;5.678;2022-10-01T17:36:06;2.10;;;0.82;;
28772;SDS011;15925;51.222;5.678;2022-10-01T17:38:33;4.10;;;0.52;;
28772;SDS011;15925;51.222;5.678;2022-10-01T17:40:59;12.90;;;1.63;;
28772;SDS011;15925;51.222;5.678;2022-10-01T17:43:25;10.63;;;1.30;;
28772;SDS011;15925;51.222;5.678;2022-10-01T17:45:55;20.97;;;1.90;;
28772;SDS011;15925;51.222;5.678;2022-10-01T17:48:23;4.25;;;0.90;;
28772;SDS011;15925;51.222;5.678;2022-10-01T17:51:00;6.03;;;0.90;;
28772;SDS011;15925;51.222;5.678;2022-10-01T17:53:29;4.38;;;0.98;;
28772;SDS011;15925;51.222;5.678;2022-10-01T17:56:03;18.77;;;1.77;;
28772;SDS011;15925;51.222;5.678;2022-10-01T17:58:33;14.70;;;0.55;;
28772;SDS011;15925;51.222;5.678;2022-10-01T18:01:00;9.45;;;0.85;;
28772;SDS011;15925;51.222;5.678;2022-10-01T18:03:26;7.88;;;1.13;;
28772;SDS011;15925;51.222;5.678;2022-10-01T18:05:58;12.70;;;1.33;;
28772;SDS011;15925;51.222;5.678;2022-10-01T18:08:27;9.52;;;1.25;;
28772;SDS011;15925;51.222;5.678;2022-10-01T18:11:00;9.68;;;0.90;;
28772;SDS011;15925;51.222;5.678;2022-10-01T18:13:27;4.80;;;0.82;;
28772;SDS011;15925;51.222;5.678;2022-10-01T18:16:00;14.97;;;1.43;;
28772;SDS011;15925;51.222;5.678;2022-10-01T18:18:27;7.47;;;1.10;;
28772;SDS011;15925;51.222;5.678;2022-10-01T18:20:53;1.13;;;0.90;;
28772;SDS011;15925;51.222;5.678;2022-10-01T18:23:19;7.23;;;0.77;;
28772;SDS011;15925;51.222;5.678;2022-10-01T18:25:45;1.30;;;0.57;;
28772;SDS011;15925;51.222;5.678;2022-10-01T18:28:11;6.30;;;1.70;;